Time;durP1;ratioP1;P1;durP2;ratioP2;P2;SDS_P1;SDS_P2;PMS_P1;PMS_P2;Temp;Humidity;BMP_temperature;BMP_pressure;BME280_temperature;BME280_humidity;BME280_pressure;Samples;Min_cycle;Max_cycle;Signal;HPM_P1;HPM_P2
2022/01/12 00:01:01;;;;;;;4.82;4.03;;;18.60;47.20;;;;;;5082912;28;20044;-61
2022/01/12 00:03:28;;;;;;;5.80;5.05;;;18.60;47.20;;;;;;5082697;28;20055;-59
2022/01/12 00:05:55;;;;;;;5.85;4.50;;;18.60;47.20;;;;;;5085433;28;20040;-62
2022/01/12 00:08:22;;;;;;;4.28;3.88;;;18.60;47.20;;;;;;5085685;28;20042;-58
2022/01/12 00:10:49;;;;;;;7.10;5.00;;;18.60;47.20;;;;;;5087176;28;20126;-45
2022/01/12 00:13:16;;;;;;;10.75;4.65;;;18.60;47.20;;;;;;5082606;28;20043;-44
2022/01/12 00:15:45;;;;;;;11.85;4.43;;;18.60;47.60;;;;;;5083586;28;20076;-45
2022/01/12 00:18:12;;;;;;;6.55;5.80;;;18.60;46.80;;;;;;5081771;28;20511;-45
2022/01/12 00:20:39;;;;;;;5.95;4.68;;;18.60;46.50;;;;;;5082673;28;20044;-45
2022/01/12 00:23:06;;;;;;;6.15;4.43;;;18.60;46.40;;;;;;5079403;28;20040;-44
2022/01/12 00:25:45;;;;;;;10.90;5.25;;;18.60;46.30;;;;;;5086028;28;20051;-45
2022/01/12 00:33:43;;;;;;;4.97;4.13;;;18.60;47.00;;;;;;5066693;28;20051;-46
2022/01/12 00:36:10;;;;;;;4.38;3.78;;;18.60;47.10;;;;;;5082590;28;20047;-48
2022/01/12 00:38:38;;;;;;;4.38;3.88;;;18.60;47.00;;;;;;5084072;28;20104;-44
2022/01/12 00:41:05;;;;;;;8.20;5.38;;;18.60;47.00;;;;;;5055777;28;20075;-45
2022/01/12 00:43:34;;;;;;;5.35;4.53;;;18.60;47.00;;;;;;5068764;28;20436;-47
2022/01/12 00:46:02;;;;;;;6.35;4.65;;;18.60;46.90;;;;;;5084320;28;20047;-46
2022/01/12 00:48:29;;;;;;;11.73;5.50;;;18.60;46.80;;;;;;5068202;28;20048;-46
2022/01/12 00:50:58;;;;;;;7.50;5.22;;;18.60;46.80;;;;;;5082488;28;20036;-49
2022/01/12 00:53:26;;;;;;;6.20;5.20;;;18.60;46.70;;;;;;5080232;28;20068;-44
2022/01/12 00:55:52;;;;;;;10.13;5.20;;;18.60;46.70;;;;;;5094400;28;20036;-43
2022/01/12 00:58:19;;;;;;;10.50;4.32;;;18.50;46.50;;;;;;5083669;28;20044;-48
2022/01/12 01:00:47;;;;;;;6.80;4.53;;;18.50;46.50;;;;;;5067799;28;20036;-44
2022/01/12 01:03:16;;;;;;;7.32;4.75;;;18.50;46.50;;;;;;5082619;28;20036;-43
2022/01/12 01:05:43;;;;;;;6.28;3.95;;;18.50;46.40;;;;;;5070104;28;20475;-45
2022/01/12 01:08:11;;;;;;;4.40;4.07;;;18.60;46.40;;;;;;5074309;28;20089;-43
2022/01/12 01:10:46;;;;;;;6.45;4.63;;;18.50;46.30;;;;;;5072733;28;20486;-44
2022/01/12 01:13:18;;;;;;;8.07;5.78;;;18.50;46.30;;;;;;5069241;28;20036;-45
2022/01/12 01:16:08;;;;;;;7.43;4.55;;;18.50;46.20;;;;;;5071806;28;20048;-44
2022/01/12 01:26:59;;;;;;;5.07;4.57;;;18.40;46.10;;;;;;5062162;28;20066;-44
2022/01/12 01:29:28;;;;;;;4.47;3.80;;;18.50;46.00;;;;;;5061605;28;20074;-43
2022/01/12 01:31:55;;;;;;;5.65;4.50;;;18.50;46.50;;;;;;5068944;28;20521;-44
2022/01/12 01:34:26;;;;;;;9.02;4.55;;;18.40;45.80;;;;;;5085113;28;20044;-45
2022/01/12 01:36:55;;;;;;;5.80;5.15;;;18.50;45.80;;;;;;5083342;28;20429;-43
2022/01/12 01:39:27;;;;;;;5.43;4.85;;;18.40;45.70;;;;;;5064782;28;20047;-46
2022/01/12 01:41:59;;;;;;;7.45;4.57;;;18.40;45.70;;;;;;5084647;28;20048;-46
2022/01/12 01:55:17;;;;;;;7.28;5.40;;;18.30;45.50;;;;;;5004611;28;20057;-43
2022/01/12 01:57:48;;;;;;;7.10;4.45;;;18.40;46.10;;;;;;5005047;28;20128;-45
2022/01/12 02:00:18;;;;;;;6.13;5.05;;;18.30;45.40;;;;;;5019363;28;20048;-48
2022/01/12 02:02:53;;;;;;;11.13;5.40;;;18.40;45.50;;;;;;5015203;28;20168;-44
2022/01/12 02:05:23;;;;;;;6.55;5.20;;;18.30;45.50;;;;;;5020948;28;20057;-47
2022/01/12 02:07:51;;;;;;;9.00;5.88;;;18.30;45.50;;;;;;5006603;28;20061;-50
2022/01/12 02:10:20;;;;;;;5.63;5.13;;;18.30;45.50;;;;;;5004982;28;20045;-45
2022/01/12 02:12:49;;;;;;;6.03;4.97;;;18.30;45.50;;;;;;5002746;28;20133;-43
2022/01/12 02:15:19;;;;;;;7.95;5.90;;;18.30;45.50;;;;;;5001517;28;20072;-45
2022/01/12 02:18:05;;;;;;;6.63;4.97;;;18.30;45.50;;;;;;5008409;28;20469;-47
2022/01/12 02:40:24;;;;;;;7.68;5.93;;;18.20;45.80;;;;;;5088668;28;20515;-44
2022/01/12 02:43:02;;;;;;;5.57;4.97;;;18.20;45.90;;;;;;5087383;28;20042;-45
2022/01/12 02:51:10;;;;;;;5.32;4.82;;;18.20;45.90;;;;;;5087464;28;20169;-48
2022/01/12 02:53:40;;;;;;;8.07;5.57;;;18.10;45.80;;;;;;5079846;28;20089;-48
2022/01/12 02:56:09;;;;;;;9.10;6.18;;;18.20;46.00;;;;;;5072925;28;20454;-44
2022/01/12 02:58:37;;;;;;;6.82;5.72;;;18.20;46.00;;;;;;5088970;28;20047;-43
2022/01/12 03:01:32;;;;;;;5.65;5.03;;;18.20;46.00;;;;;;5087335;28;20040;-45
2022/01/12 03:04:03;;;;;;;5.95;5.20;;;18.20;46.00;;;;;;5072868;28;20067;-47
2022/01/12 03:06:34;;;;;;;9.00;5.95;;;18.20;46.10;;;;;;5069162;28;20123;-48
2022/01/12 03:09:04;;;;;;;7.68;5.55;;;18.20;46.10;;;;;;5069142;28;20040;-47
2022/01/12 03:11:32;;;;;;;7.80;5.15;;;18.10;46.10;;;;;;5069017;28;20044;-48
2022/01/12 03:14:07;;;;;;;7.20;5.60;;;18.10;46.10;;;;;;5073427;28;20055;-45
2022/01/12 03:16:35;;;;;;;7.05;5.15;;;18.10;46.10;;;;;;5076202;28;20040;-46
2022/01/12 03:19:08;;;;;;;7.60;5.00;;;18.10;46.10;;;;;;5072717;28;20455;-49
2022/01/12 03:21:35;;;;;;;6.68;5.63;;;18.10;46.00;;;;;;5069510;28;20052;-46
2022/01/12 03:24:05;;;;;;;9.35;6.10;;;18.20;46.00;;;;;;5086760;28;20039;-45
2022/01/12 03:26:33;;;;;;;8.10;5.43;;;18.20;46.00;;;;;;5073256;28;20129;-46
2022/01/12 03:29:01;;;;;;;7.80;6.40;;;18.10;46.00;;;;;;5072457;28;20043;-51
2022/01/12 03:31:33;;;;;;;8.95;6.60;;;18.10;46.00;;;;;;5075244;28;20420;-49
2022/01/12 03:34:06;;;;;;;9.55;6.05;;;18.10;45.90;;;;;;5073512;28;20043;-47
2022/01/12 03:36:42;;;;;;;4.68;4.25;;;18.10;45.90;;;;;;5068868;28;20040;-45
2022/01/12 03:39:13;;;;;;;8.65;4.75;;;18.10;45.80;;;;;;5086649;28;20396;-45
2022/01/12 03:41:44;;;;;;;7.03;5.25;;;18.10;45.80;;;;;;5086760;28;20036;-44
2022/01/12 03:44:13;;;;;;;6.30;5.57;;;18.10;45.80;;;;;;5074643;28;20119;-49
2022/01/12 03:46:45;;;;;;;5.75;5.13;;;18.10;45.80;;;;;;5087070;28;20531;-50
2022/01/12 03:49:14;;;;;;;5.60;5.10;;;18.10;45.70;;;;;;5072540;28;20416;-46
2022/01/12 03:51:43;;;;;;;6.10;5.22;;;18.10;45.70;;;;;;5070323;28;20127;-45
2022/01/12 03:54:12;;;;;;;5.40;4.70;;;18.10;45.70;;;;;;5071037;28;20504;-46
2022/01/12 03:56:41;;;;;;;5.40;4.45;;;18.10;45.80;;;;;;5067776;28;20046;-45
2022/01/12 03:59:08;;;;;;;9.88;5.75;;;18.10;45.80;;;;;;5086437;28;20047;-50
2022/01/12 04:01:36;;;;;;;8.00;5.80;;;18.00;45.70;;;;;;5085160;28;20040;-44
2022/01/12 04:04:08;;;;;;;7.47;5.95;;;18.10;45.70;;;;;;5069288;28;20043;-45
2022/01/12 04:09:22;;;;;;;7.97;5.63;;;18.00;45.60;;;;;;5086151;28;20044;-45
2022/01/12 04:11:49;;;;;;;6.45;4.53;;;18.10;45.60;;;;;;5071345;28;20048;-45
2022/01/12 04:14:16;;;;;;;6.47;5.88;;;18.00;45.60;;;;;;5068957;28;20044;-47
2022/01/12 04:16:44;;;;;;;8.15;5.68;;;18.00;46.20;;;;;;5073491;28;20055;-48
2022/01/12 04:19:12;;;;;;;9.00;5.53;;;18.00;45.60;;;;;;5073818;28;20043;-44
2022/01/12 04:21:43;;;;;;;6.65;5.03;;;18.00;45.50;;;;;;5072105;28;20127;-45
2022/01/12 04:24:10;;;;;;;11.25;6.55;;;18.00;45.60;;;;;;5085447;28;20051;-45
2022/01/12 04:26:38;;;;;;;7.63;6.65;;;18.00;45.60;;;;;;5085657;28;20028;-43
2022/01/12 04:29:06;;;;;;;5.60;5.03;;;18.00;45.50;;;;;;5068213;28;20040;-44
2022/01/12 04:31:34;;;;;;;9.70;5.38;;;18.00;45.50;;;;;;5073138;28;20044;-48
2022/01/12 04:34:01;;;;;;;8.75;5.55;;;18.00;45.50;;;;;;5071767;28;20130;-47
2022/01/12 04:36:28;;;;;;;7.40;5.47;;;18.00;45.50;;;;;;5085723;28;20047;-44
2022/01/12 04:38:56;;;;;;;7.95;5.60;;;18.00;46.00;;;;;;5066649;28;20032;-44
2022/01/12 04:41:24;;;;;;;7.28;5.90;;;18.00;45.40;;;;;;5069623;28;20039;-43
2022/01/12 04:43:53;;;;;;;8.77;5.65;;;18.00;45.30;;;;;;5065127;28;20040;-45
2022/01/12 04:49:23;;;;;;;8.05;6.35;;;18.00;45.30;;;;;;5069240;28;20040;-44
2022/01/12 04:51:51;;;;;;;11.13;6.97;;;18.00;45.20;;;;;;5085098;28;20048;-44
2022/01/12 04:54:18;;;;;;;7.18;5.55;;;18.00;45.30;;;;;;5053797;28;20146;-44
2022/01/12 04:56:45;;;;;;;9.35;6.00;;;18.00;45.30;;;;;;5067151;28;20782;-44
2022/01/12 04:59:14;;;;;;;10.13;6.32;;;18.00;45.20;;;;;;5085456;28;20048;-45
2022/01/12 05:01:50;;;;;;;8.68;5.80;;;18.00;45.20;;;;;;5071432;28;20040;-49
2022/01/12 05:07:23;;;;;;;13.00;7.03;;;18.00;45.20;;;;;;5069346;28;20100;-46
2022/01/12 05:12:47;;;;;;;10.93;6.85;;;18.00;45.10;;;;;;5064352;28;20032;-44
2022/01/12 05:12:52;;;;;;;8.40;6.18;;;18.00;45.20;;;;;;5067360;28;20524;-44
2022/01/12 05:15:32;;;;;;;8.80;6.38;;;18.00;45.20;;;;;;5064167;28;20051;-43
2022/01/12 05:17:59;;;;;;;9.65;6.03;;;17.90;45.20;;;;;;5061240;28;20518;-44
2022/01/12 05:20:26;;;;;;;8.40;6.57;;;18.00;45.10;;;;;;5049056;28;20058;-45
2022/01/12 05:22:53;;;;;;;13.55;7.63;;;17.90;45.10;;;;;;5069511;28;20044;-47
2022/01/12 05:25:22;;;;;;;9.80;6.72;;;17.90;45.10;;;;;;5084478;28;20044;-45
2022/01/12 05:27:49;;;;;;;10.75;7.60;;;18.00;45.10;;;;;;5084537;28;20055;-45
2022/01/12 05:30:17;;;;;;;9.05;6.63;;;18.00;45.00;;;;;;5069817;28;20509;-48
2022/01/12 05:32:47;;;;;;;25.73;8.30;;;18.00;45.00;;;;;;5063439;28;20593;-49
2022/01/12 05:35:17;;;;;;;9.35;7.03;;;18.00;45.00;;;;;;5066449;28;20056;-49
2022/01/12 05:37:45;;;;;;;11.43;7.55;;;18.00;45.00;;;;;;5090067;28;20108;-45
2022/01/12 05:40:13;;;;;;;11.70;7.50;;;18.00;45.00;;;;;;5059798;28;20029;-46
2022/01/12 05:42:43;;;;;;;9.60;6.45;;;18.00;44.90;;;;;;5067403;28;20056;-44
2022/01/12 05:45:11;;;;;;;9.90;6.60;;;18.00;44.90;;;;;;5064682;28;20047;-49
2022/01/12 05:50:25;;;;;;;11.88;8.02;;;17.90;44.80;;;;;;5006801;28;20068;-51
2022/01/12 05:52:53;;;;;;;12.70;6.90;;;17.90;44.80;;;;;;5012431;28;20509;-48
2022/01/12 05:55:21;;;;;;;11.43;8.27;;;18.00;44.80;;;;;;5019163;28;20058;-43
2022/01/12 05:57:48;;;;;;;13.65;8.45;;;17.90;44.70;;;;;;5012107;28;20060;-47
2022/01/12 06:00:18;;;;;;;13.68;8.93;;;17.90;44.70;;;;;;5011216;28;20088;-47
2022/01/12 06:02:52;;;;;;;14.95;7.55;;;18.00;44.70;;;;;;5009102;28;20706;-47
2022/01/12 06:05:21;;;;;;;14.10;9.00;;;17.90;44.80;;;;;;5009020;28;20053;-48
2022/01/12 06:07:51;;;;;;;12.90;8.20;;;17.90;44.80;;;;;;5010802;28;20065;-46
2022/01/12 06:10:21;;;;;;;14.07;8.00;;;18.00;44.90;;;;;;5008537;28;20573;-44
2022/01/12 06:12:49;;;;;;;12.43;8.50;;;18.00;44.80;;;;;;5008041;28;20042;-45
2022/01/12 06:15:16;;;;;;;13.45;8.52;;;17.90;44.80;;;;;;5008213;28;20049;-47
2022/01/12 06:17:44;;;;;;;11.93;7.82;;;18.00;44.80;;;;;;5010186;28;20061;-48
2022/01/12 06:20:11;;;;;;;14.55;8.45;;;18.00;44.80;;;;;;5009287;28;20064;-49
2022/01/12 06:22:59;;;;;;;11.90;8.55;;;17.90;44.70;;;;;;5010577;28;20076;-49
2022/01/12 06:25:26;;;;;;;14.57;9.43;;;17.90;44.70;;;;;;5028750;28;20081;-45
2022/01/12 06:27:57;;;;;;;14.00;8.52;;;17.90;44.70;;;;;;5043678;28;20052;-46
2022/01/12 06:33:11;;;;;;;16.08;8.70;;;17.90;44.70;;;;;;5086301;28;20173;-49
2022/01/12 06:35:38;;;;;;;14.80;8.27;;;17.90;44.80;;;;;;5087568;28;20044;-48
2022/01/12 06:38:07;;;;;;;16.23;9.18;;;17.90;44.80;;;;;;5069059;28;20044;-47
2022/01/12 06:40:34;;;;;;;15.95;10.23;;;17.90;44.70;;;;;;5070282;28;20040;-44
2022/01/12 06:43:02;;;;;;;13.73;9.90;;;17.90;44.70;;;;;;5068089;28;20052;-47
2022/01/12 06:45:30;;;;;;;13.90;8.90;;;17.90;44.70;;;;;;5066397;28;20036;-47
2022/01/12 06:47:57;;;;;;;12.35;8.20;;;17.90;44.60;;;;;;5068974;28;20059;-45
2022/01/12 06:50:25;;;;;;;15.88;10.18;;;17.90;44.60;;;;;;5088229;28;20036;-47
2022/01/12 06:52:53;;;;;;;16.02;9.45;;;17.90;44.60;;;;;;5069977;28;20040;-45
2022/01/12 06:55:22;;;;;;;23.88;9.73;;;17.90;44.60;;;;;;5069019;28;20101;-44
2022/01/12 06:57:49;;;;;;;14.35;8.93;;;17.90;44.70;;;;;;5084818;28;20171;-48
2022/01/12 07:00:17;;;;;;;15.48;8.88;;;17.90;44.60;;;;;;5067779;28;20093;-46
2022/01/12 07:02:44;;;;;;;18.25;10.02;;;17.90;44.60;;;;;;5066514;28;20055;-46
2022/01/12 07:05:15;;;;;;;15.25;9.55;;;17.90;44.60;;;;;;5060910;28;20032;-51
2022/01/12 07:07:42;;;;;;;15.48;9.77;;;17.90;44.60;;;;;;5073655;28;20149;-47
2022/01/12 07:10:18;;;;;;;14.98;10.02;;;17.90;44.60;;;;;;5070868;28;20058;-45
2022/01/12 07:12:48;;;;;;;14.25;8.45;;;17.90;44.60;;;;;;5062263;28;20047;-46
2022/01/12 07:15:15;;;;;;;15.32;9.90;;;17.90;44.50;;;;;;5068559;28;20063;-50
2022/01/12 07:17:44;;;;;;;13.55;9.07;;;17.90;44.60;;;;;;5068998;28;20044;-48
2022/01/12 07:20:12;;;;;;;12.52;8.88;;;17.90;44.60;;;;;;5073871;28;20052;-48
2022/01/12 07:22:41;;;;;;;19.77;10.45;;;17.90;44.60;;;;;;5059574;28;20050;-45
2022/01/12 07:25:09;;;;;;;15.80;10.15;;;17.90;44.50;;;;;;5085427;28;20048;-48
2022/01/12 07:27:36;;;;;;;15.50;8.68;;;17.90;44.50;;;;;;5085281;28;20152;-45
2022/01/12 07:30:06;;;;;;;12.75;9.38;;;17.90;44.40;;;;;;5086617;28;20048;-45
2022/01/12 07:32:33;;;;;;;13.57;9.40;;;17.90;44.40;;;;;;5086462;28;20040;-44
2022/01/12 07:35:01;;;;;;;14.93;10.18;;;17.90;44.40;;;;;;5087950;28;20040;-45
2022/01/12 07:37:28;;;;;;;14.75;9.98;;;17.90;44.40;;;;;;5087271;28;20047;-47
2022/01/12 07:39:55;;;;;;;14.73;10.95;;;17.90;44.40;;;;;;5086166;28;20129;-45
2022/01/12 07:42:22;;;;;;;17.63;9.95;;;17.90;44.40;;;;;;5085981;28;20044;-44
2022/01/12 07:44:57;;;;;;;14.40;8.57;;;17.90;44.40;;;;;;5068381;28;20040;-43
2022/01/12 07:47:27;;;;;;;12.75;8.00;;;17.90;44.40;;;;;;5084914;28;20045;-43
2022/01/12 07:49:55;;;;;;;14.60;8.63;;;17.90;44.50;;;;;;5088630;28;20098;-44
2022/01/12 07:52:23;;;;;;;14.88;8.48;;;17.90;44.50;;;;;;5085736;28;20417;-46
2022/01/12 07:54:50;;;;;;;13.23;8.98;;;17.90;44.50;;;;;;5081439;28;20062;-46
2022/01/12 07:57:18;;;;;;;12.52;9.30;;;17.80;44.50;;;;;;5078184;28;20093;-44
2022/01/12 07:59:46;;;;;;;12.40;8.68;;;17.80;45.10;;;;;;5079395;28;20057;-48
2022/01/12 08:02:14;;;;;;;15.93;9.77;;;17.90;44.50;;;;;;5082742;28;20043;-47
2022/01/12 08:04:43;;;;;;;17.52;10.15;;;17.90;44.50;;;;;;5086220;28;20052;-49
2022/01/12 08:07:11;;;;;;;18.42;9.52;;;17.90;44.60;;;;;;5084580;28;20040;-44
2022/01/12 08:09:38;;;;;;;22.48;8.60;;;17.90;44.50;;;;;;5084653;28;20054;-46
2022/01/12 08:12:07;;;;;;;14.82;9.35;;;17.80;44.50;;;;;;5084452;28;20123;-48
2022/01/12 08:14:34;;;;;;;14.57;9.20;;;17.90;44.60;;;;;;5082736;28;20059;-50
2022/01/12 08:17:02;;;;;;;14.95;9.30;;;17.80;44.60;;;;;;5086205;28;20132;-47
2022/01/12 08:19:30;;;;;;;14.55;9.93;;;17.80;44.60;;;;;;5086177;28;20586;-44
2022/01/12 08:21:59;;;;;;;14.93;9.63;;;17.80;44.60;;;;;;5083515;28;20089;-45
2022/01/12 08:24:26;;;;;;;17.10;11.05;;;17.90;44.70;;;;;;5084987;28;20036;-41
2022/01/12 08:26:53;;;;;;;22.02;10.52;;;17.90;44.70;;;;;;5085445;28;20131;-46
2022/01/12 08:29:22;;;;;;;17.23;10.23;;;17.80;44.60;;;;;;5083623;28;20505;-49
2022/01/12 08:31:50;;;;;;;20.50;10.65;;;17.90;44.70;;;;;;5087459;28;20589;-49
2022/01/12 08:34:17;;;;;;;21.88;9.75;;;17.80;44.90;;;;;;5084069;28;20042;-47
2022/01/12 08:36:44;;;;;;;19.92;10.48;;;17.90;45.10;;;;;;5086068;28;20040;-46
2022/01/12 08:39:13;;;;;;;19.05;9.70;;;17.90;45.30;;;;;;5076290;28;20040;-57
2022/01/12 08:41:40;;;;;;;16.27;10.13;;;17.90;45.40;;;;;;5078726;28;20036;-56
2022/01/12 08:44:09;;;;;;;13.07;8.20;;;17.90;45.40;;;;;;5082349;28;20212;-56
2022/01/12 08:46:38;;;;;;;16.75;9.75;;;17.90;45.40;;;;;;5086832;28;20579;-58
2022/01/12 08:49:05;;;;;;;17.45;10.32;;;17.90;45.40;;;;;;5082897;28;20097;-55
2022/01/12 08:51:33;;;;;;;16.48;9.80;;;17.90;45.40;;;;;;5084083;28;20048;-61
2022/01/12 08:54:00;;;;;;;19.60;9.85;;;18.00;45.50;;;;;;5065994;28;20072;-56
2022/01/12 08:56:29;;;;;;;18.15;9.88;;;17.90;45.50;;;;;;5083736;28;20051;-82
2022/01/12 08:58:56;;;;;;;20.17;10.45;;;17.90;45.50;;;;;;5083151;28;20898;-74
2022/01/12 09:01:23;;;;;;;21.58;10.65;;;18.00;45.50;;;;;;5082278;28;20062;-66
2022/01/12 09:03:50;;;;;;;20.23;10.95;;;18.00;45.50;;;;;;5083619;28;20051;-64
2022/01/12 09:06:18;;;;;;;22.23;11.95;;;18.00;45.30;;;;;;5064915;28;20053;-61
2022/01/12 09:08:45;;;;;;;23.90;12.45;;;18.00;44.60;;;;;;5076200;28;20043;-61
2022/01/12 09:11:13;;;;;;;19.55;11.90;;;18.00;44.50;;;;;;5080776;28;20036;-63
2022/01/12 09:13:42;;;;;;;22.05;12.73;;;18.00;44.30;;;;;;5084420;28;20126;-63
2022/01/12 09:16:10;;;;;;;19.63;11.18;;;18.10;44.20;;;;;;5079009;28;20040;-62
2022/01/12 09:18:40;;;;;;;22.73;13.82;;;18.10;43.90;;;;;;5061270;28;20054;-61
2022/01/12 09:21:07;;;;;;;24.83;12.45;;;18.20;43.80;;;;;;5075737;28;20047;-64
2022/01/12 09:23:35;;;;;;;19.83;12.80;;;18.30;43.60;;;;;;5079306;28;21187;-63
2022/01/12 09:26:03;;;;;;;19.15;12.55;;;18.40;43.20;;;;;;5077964;28;20036;-65
2022/01/12 09:28:30;;;;;;;21.48;13.20;;;18.60;43.00;;;;;;5081941;28;20043;-62
2022/01/12 09:30:59;;;;;;;18.85;11.40;;;18.70;42.70;;;;;;5062262;28;20086;-63
2022/01/12 09:33:26;;;;;;;20.27;12.63;;;18.80;42.40;;;;;;5061045;28;20042;-63
2022/01/12 09:35:54;;;;;;;23.20;13.45;;;19.00;42.10;;;;;;5077192;28;20044;-63
2022/01/12 09:38:23;;;;;;;20.10;13.30;;;19.10;41.90;;;;;;5079260;28;20121;-61
2022/01/12 09:40:53;;;;;;;18.88;12.00;;;19.20;41.60;;;;;;5084522;28;20044;-64
2022/01/12 09:43:24;;;;;;;26.05;13.88;;;19.40;41.40;;;;;;5079105;28;20166;-62
2022/01/12 09:45:52;;;;;;;26.70;13.40;;;19.40;41.10;;;;;;5075509;28;20059;-66
2022/01/12 09:48:26;;;;;;;22.65;14.48;;;19.50;40.80;;;;;;5081229;28;20123;-60
2022/01/12 09:50:56;;;;;;;22.90;14.27;;;19.60;40.50;;;;;;5079984;28;20044;-63
2022/01/12 09:53:23;;;;;;;19.48;13.60;;;19.70;40.20;;;;;;5078557;28;20131;-62
2022/01/12 09:55:50;;;;;;;22.92;13.73;;;19.80;40.10;;;;;;5077767;28;20098;-64
2022/01/12 09:58:18;;;;;;;20.08;13.65;;;19.90;39.90;;;;;;5075051;28;20058;-61
2022/01/12 10:00:56;;;;;;;21.83;14.00;;;20.00;39.80;;;;;;5075145;28;20051;-65
2022/01/12 10:03:27;;;;;;;21.63;13.68;;;20.10;39.50;;;;;;5073771;28;20147;-64
2022/01/12 10:05:55;;;;;;;21.50;14.15;;;20.20;39.40;;;;;;5076918;28;20089;-62
2022/01/12 10:08:22;;;;;;;20.63;12.80;;;20.20;39.10;;;;;;5076911;28;20040;-52
2022/01/12 10:11:02;;;;;;;26.65;15.48;;;20.30;38.90;;;;;;5077739;28;20044;-51
2022/01/12 10:13:30;;;;;;;22.40;14.38;;;20.40;38.70;;;;;;5062265;28;20142;-50
2022/01/12 10:15:58;;;;;;;20.55;13.00;;;20.40;38.60;;;;;;5077052;28;20059;-46
2022/01/12 10:18:27;;;;;;;21.88;13.80;;;20.50;38.40;;;;;;5078092;28;20044;-48
2022/01/12 10:20:54;;;;;;;25.50;14.57;;;20.60;38.20;;;;;;5078783;28;20740;-45
2022/01/12 10:23:23;;;;;;;23.10;13.43;;;20.60;38.10;;;;;;5076788;28;20541;-50
2022/01/12 10:25:51;;;;;;;23.08;13.68;;;20.70;38.00;;;;;;5078345;28;20508;-52
2022/01/12 10:28:20;;;;;;;20.58;12.27;;;20.70;38.00;;;;;;5060188;28;20036;-44
2022/01/12 10:30:56;;;;;;;21.38;13.65;;;20.80;37.90;;;;;;5076124;28;20059;-51
2022/01/12 10:33:25;;;;;;;30.35;15.23;;;20.80;37.90;;;;;;5077124;28;20044;-46
2022/01/12 10:36:00;;;;;;;24.75;14.77;;;20.80;37.80;;;;;;5059681;28;20051;-46
2022/01/12 10:38:29;;;;;;;22.48;13.63;;;20.80;37.70;;;;;;5081730;28;20084;-44
2022/01/12 10:40:59;;;;;;;25.02;14.40;;;20.80;37.50;;;;;;5083248;28;20123;-48
2022/01/12 10:43:35;;;;;;;25.75;13.73;;;20.90;37.50;;;;;;5082731;28;20036;-46
2022/01/12 10:46:04;;;;;;;23.27;13.73;;;20.90;37.40;;;;;;5077772;28;20118;-44
2022/01/12 10:48:43;;;;;;;27.17;14.48;;;20.90;37.40;;;;;;5082189;28;20516;-47
2022/01/12 10:51:12;;;;;;;22.13;14.02;;;21.00;37.50;;;;;;5082345;28;20036;-45
2022/01/12 10:53:39;;;;;;;20.67;13.68;;;20.90;37.50;;;;;;5081967;28;20047;-50
2022/01/12 10:56:09;;;;;;;20.17;12.18;;;21.00;37.50;;;;;;5079992;28;20046;-50
2022/01/12 10:58:39;;;;;;;26.73;14.73;;;21.00;37.60;;;;;;5084048;28;20143;-45
2022/01/12 11:01:06;;;;;;;18.15;12.23;;;21.00;37.30;;;;;;5082198;28;20051;-46
2022/01/12 11:03:34;;;;;;;25.00;12.52;;;21.00;37.20;;;;;;5080662;28;20051;-43
2022/01/12 11:06:02;;;;;;;23.52;14.68;;;21.00;37.10;;;;;;5078091;28;20036;-41
2022/01/12 11:08:30;;;;;;;20.40;12.38;;;21.00;37.10;;;;;;5080603;28;20048;-44
2022/01/12 11:10:59;;;;;;;20.92;13.55;;;21.00;37.10;;;;;;5080940;28;20048;-46
2022/01/12 11:13:28;;;;;;;21.50;13.07;;;21.00;37.10;;;;;;5081198;28;20043;-45
2022/01/12 11:15:56;;;;;;;26.77;14.05;;;21.00;37.10;;;;;;5077190;28;20470;-44
2022/01/12 11:18:26;;;;;;;20.88;12.52;;;21.00;37.00;;;;;;5079681;28;20055;-44
2022/01/12 11:20:57;;;;;;;19.20;13.93;;;21.10;37.10;;;;;;5057637;28;20037;-46
2022/01/12 11:23:36;;;;;;;21.45;13.70;;;21.10;37.10;;;;;;5057789;28;20040;-46
2022/01/12 11:26:14;;;;;;;25.05;13.93;;;21.10;37.10;;;;;;5056901;28;20520;-45
2022/01/12 11:28:41;;;;;;;23.10;14.07;;;21.10;37.10;;;;;;5060636;28;20045;-45
2022/01/12 11:31:08;;;;;;;21.65;12.45;;;21.10;37.10;;;;;;5059847;28;20048;-46
2022/01/12 11:33:42;;;;;;;21.58;13.15;;;21.10;37.10;;;;;;5060013;28;20121;-48
2022/01/12 11:36:18;;;;;;;19.08;12.75;;;21.10;37.10;;;;;;5056816;28;20144;-44
2022/01/12 11:38:52;;;;;;;20.50;13.73;;;21.10;37.10;;;;;;5059129;28;20052;-44
2022/01/12 11:41:23;;;;;;;24.30;14.93;;;21.10;37.20;;;;;;5061997;28;20151;-46
2022/01/12 11:43:52;;;;;;;19.67;13.27;;;21.10;37.00;;;;;;5062571;28;20041;-47
2022/01/12 11:46:22;;;;;;;23.50;13.82;;;21.10;37.00;;;;;;5057776;28;20040;-47
2022/01/12 11:48:51;;;;;;;21.65;12.40;;;21.10;37.00;;;;;;5059339;28;20045;-46
2022/01/12 11:51:20;;;;;;;21.13;12.73;;;21.10;37.00;;;;;;5060241;28;20394;-46
2022/01/12 11:53:52;;;;;;;22.33;13.23;;;21.10;37.00;;;;;;5060104;28;20552;-44
2022/01/12 11:56:21;;;;;;;21.08;13.30;;;21.00;37.00;;;;;;5057464;28;20067;-46
2022/01/12 11:58:58;;;;;;;19.38;12.35;;;21.00;37.00;;;;;;5062135;28;20518;-47
2022/01/12 12:01:38;;;;;;;22.83;12.98;;;21.00;37.10;;;;;;5060836;28;20178;-47
2022/01/12 12:04:06;;;;;;;20.63;13.27;;;21.00;37.00;;;;;;5058990;28;20398;-44
2022/01/12 12:06:33;;;;;;;18.27;11.10;;;21.00;37.00;;;;;;5057508;28;20786;-51
2022/01/12 12:09:06;;;;;;;20.58;12.13;;;21.00;37.00;;;;;;5056782;28;20075;-48
2022/01/12 12:11:34;;;;;;;20.25;10.57;;;21.00;37.10;;;;;;5060255;28;20155;-46
2022/01/12 12:14:04;;;;;;;18.02;12.57;;;20.90;37.10;;;;;;5056915;28;20145;-47
2022/01/12 12:16:32;;;;;;;19.55;12.82;;;20.90;37.10;;;;;;5057116;28;20347;-51
2022/01/12 12:19:01;;;;;;;18.08;11.82;;;20.80;37.70;;;;;;5059215;28;20040;-47
2022/01/12 12:21:28;;;;;;;20.95;12.57;;;20.80;37.70;;;;;;5073715;28;20063;-49
2022/01/12 12:23:55;;;;;;;20.77;12.10;;;20.90;37.20;;;;;;5077259;28;20046;-46
2022/01/12 12:26:24;;;;;;;18.92;11.82;;;20.80;37.20;;;;;;5076915;28;20600;-43
2022/01/12 12:28:56;;;;;;;16.77;12.10;;;20.80;37.30;;;;;;5081611;28;20032;-45
2022/01/12 12:31:24;;;;;;;17.23;11.65;;;20.70;37.30;;;;;;5077164;28;20048;-45
2022/01/12 12:34:03;;;;;;;19.35;10.13;;;20.70;37.50;;;;;;5076906;28;20115;-43
2022/01/12 12:36:30;;;;;;;16.83;12.80;;;20.60;37.50;;;;;;5074199;28;20042;-48
2022/01/12 12:39:10;;;;;;;16.05;11.15;;;20.60;37.70;;;;;;5077448;28;20512;-44
2022/01/12 12:41:40;;;;;;;17.88;11.70;;;20.50;37.70;;;;;;5077070;28;20123;-45
2022/01/12 12:44:19;;;;;;;16.80;11.10;;;20.50;37.80;;;;;;5076793;28;20736;-44
2022/01/12 12:46:46;;;;;;;16.15;10.98;;;20.50;37.90;;;;;;5077488;28;20542;-45
2022/01/12 12:49:13;;;;;;;20.92;9.85;;;20.40;38.00;;;;;;5077289;28;20047;-44
2022/01/12 12:51:40;;;;;;;16.52;11.43;;;20.50;38.00;;;;;;5076822;28;20055;-43
2022/01/12 12:54:08;;;;;;;13.90;10.00;;;20.50;38.00;;;;;;5076557;28;20040;-50
2022/01/12 12:56:40;;;;;;;14.55;9.80;;;20.50;37.90;;;;;;5072690;28;20040;-45
2022/01/12 12:59:09;;;;;;;17.75;11.90;;;20.50;37.80;;;;;;5076290;28;20076;-43
2022/01/12 13:01:38;;;;;;;18.70;10.57;;;20.50;37.70;;;;;;5079895;28;20054;-45
2022/01/12 13:04:05;;;;;;;20.05;9.80;;;20.50;37.60;;;;;;5078516;28;20048;-46
2022/01/12 13:06:34;;;;;;;15.80;10.32;;;20.60;37.70;;;;;;5076054;28;20626;-55
2022/01/12 13:09:04;;;;;;;19.75;11.07;;;20.60;37.80;;;;;;5082300;28;20044;-55
2022/01/12 13:11:32;;;;;;;15.40;9.63;;;20.60;37.90;;;;;;5079637;28;20109;-53
2022/01/12 13:14:02;;;;;;;17.40;11.27;;;20.60;38.00;;;;;;5079170;28;20070;-52
2022/01/12 13:16:32;;;;;;;16.60;11.43;;;20.60;38.00;;;;;;5076952;28;20036;-50
2022/01/12 13:19:06;;;;;;;14.13;9.45;;;20.60;38.00;;;;;;5063090;28;20046;-52
2022/01/12 13:21:35;;;;;;;18.42;11.23;;;20.60;37.90;;;;;;5080055;28;20059;-49
2022/01/12 13:24:03;;;;;;;14.57;9.90;;;20.60;37.90;;;;;;5079414;28;20509;-51
2022/01/12 13:26:34;;;;;;;16.15;10.07;;;20.60;37.90;;;;;;5075840;28;20131;-52
2022/01/12 13:29:07;;;;;;;16.40;9.35;;;20.60;37.90;;;;;;5078319;28;20501;-59
2022/01/12 13:31:36;;;;;;;18.90;11.23;;;20.60;37.90;;;;;;5083774;28;20039;-55
2022/01/12 13:34:05;;;;;;;15.57;10.07;;;20.60;38.00;;;;;;5078951;28;20144;-56
2022/01/12 13:36:34;;;;;;;17.42;11.95;;;20.50;38.10;;;;;;5076349;28;20908;-55
2022/01/12 13:39:05;;;;;;;15.48;10.38;;;20.50;38.20;;;;;;5079630;28;20943;-53
2022/01/12 13:41:33;;;;;;;15.00;11.02;;;20.50;38.20;;;;;;5076290;28;20044;-50
2022/01/12 13:44:05;;;;;;;15.95;9.57;;;20.50;38.30;;;;;;5080236;28;20047;-53
2022/01/12 13:46:37;;;;;;;13.93;9.27;;;20.50;38.30;;;;;;5076420;28;20040;-53
2022/01/12 13:49:20;;;;;;;15.15;9.45;;;20.50;38.30;;;;;;5077481;28;20047;-51
2022/01/12 13:51:57;;;;;;;17.38;10.93;;;20.50;38.40;;;;;;5078253;28;20050;-55